createdAt,value
2022-12-15T00:00:21.121Z,54.15
2022-12-15T00:03:06.713Z,55.00
2022-12-15T00:08:38.075Z,53.25
2022-12-15T00:11:24.053Z,51.80
2022-12-15T00:14:09.475Z,54.90
2022-12-15T00:16:54.955Z,54.83
2022-12-15T00:19:40.344Z,59.33
2022-12-15T00:22:25.819Z,52.40
2022-12-15T00:25:11.070Z,57.58
2022-12-15T00:27:56.420Z,51.75
2022-12-15T00:30:41.941Z,55.58
2022-12-15T00:33:30.380Z,55.33
2022-12-15T00:36:18.122Z,61.47
2022-12-15T00:38:46.222Z,58.22
2022-12-15T00:41:18.581Z,55.15
2022-12-15T00:43:46.441Z,53.28
2022-12-15T00:46:33.013Z,55.60
2022-12-15T00:49:00.438Z,52.47
2022-12-15T00:51:46.311Z,60.20
2022-12-15T00:54:32.151Z,60.05
2022-12-15T00:57:17.544Z,52.10
2022-12-15T01:00:02.863Z,52.80
2022-12-15T01:02:48.528Z,53.90
2022-12-15T01:05:34.297Z,64.93
2022-12-15T01:08:20.041Z,62.85
2022-12-15T01:11:05.369Z,59.45
2022-12-15T01:13:50.866Z,53.95
2022-12-15T01:16:36.504Z,54.53
2022-12-15T01:21:49.711Z,57.38
2022-12-15T01:24:16.907Z,57.50
2022-12-15T01:26:43.805Z,57.80
2022-12-15T01:29:10.795Z,62.35
2022-12-15T01:31:37.748Z,58.50
2022-12-15T01:34:04.987Z,53.85
2022-12-15T01:36:31.923Z,50.03
2022-12-15T01:38:58.845Z,58.75
2022-12-15T01:41:25.785Z,54.20
2022-12-15T01:43:53.076Z,51.25
2022-12-15T01:46:23.208Z,56.45
2022-12-15T01:49:28.315Z,52.15
2022-12-15T01:52:06.066Z,53.20
2022-12-15T01:54:42.078Z,60.25
2022-12-15T01:57:18.872Z,52.75
2022-12-15T01:59:55.664Z,59.20
2022-12-15T02:02:28.127Z,60.00
2022-12-15T02:04:59.782Z,58.38
2022-12-15T02:07:27.646Z,57.90
2022-12-15T02:10:01.706Z,56.47
2022-12-15T02:12:52.772Z,58.30
2022-12-15T02:15:41.183Z,56.10
2022-12-15T02:18:43.622Z,57.60
2022-12-15T02:21:32.359Z,50.80
2022-12-15T02:24:28.810Z,50.90
2022-12-15T02:27:25.331Z,51.05
2022-12-15T02:30:30.502Z,56.75
2022-12-15T02:33:27.642Z,50.20
2022-12-15T02:36:28.533Z,53.25
2022-12-15T02:38:55.603Z,56.25
2022-12-15T02:41:40.641Z,46.83
2022-12-15T02:44:36.891Z,57.38
2022-12-15T02:47:23.319Z,53.92
2022-12-15T02:50:17.880Z,55.83
2022-12-15T02:53:00.524Z,58.17
2022-12-15T02:55:50.362Z,50.00
2022-12-15T02:58:44.602Z,48.47
2022-12-15T03:01:40.681Z,46.90
2022-12-15T03:06:38.313Z,45.95
2022-12-15T03:09:05.598Z,54.78
2022-12-15T03:11:33.228Z,45.63
2022-12-15T03:14:00.136Z,58.35
2022-12-15T03:16:27.285Z,52.50
2022-12-15T03:18:54.249Z,54.03
2022-12-15T03:21:21.242Z,56.13
2022-12-15T03:23:48.123Z,57.55
2022-12-15T03:26:16.402Z,58.45
2022-12-15T03:28:43.599Z,60.22
2022-12-15T03:31:10.497Z,56.58
2022-12-15T03:33:37.507Z,59.33
2022-12-15T03:36:05.160Z,58.33
2022-12-15T03:38:32.034Z,58.60
2022-12-15T03:40:59.003Z,61.78
2022-12-15T03:43:25.900Z,61.40
2022-12-15T03:45:53.092Z,58.55
2022-12-15T03:48:20.033Z,55.28
2022-12-15T03:50:48.375Z,56.80
2022-12-15T03:53:15.315Z,61.78
2022-12-15T03:55:42.220Z,55.33
2022-12-15T03:58:09.135Z,51.00
2022-12-15T04:00:36.170Z,55.45
2022-12-15T04:03:03.250Z,60.58
2022-12-15T04:05:33.921Z,51.50
2022-12-15T04:08:02.160Z,60.47
2022-12-15T04:10:35.120Z,55.13
2022-12-15T04:13:09.460Z,59.75
2022-12-15T04:15:39.059Z,55.65
2022-12-15T04:18:10.051Z,56.35
2022-12-15T04:20:39.302Z,59.00
2022-12-15T04:23:09.350Z,55.42
2022-12-15T04:25:55.693Z,55.45
2022-12-15T04:28:41.660Z,54.42
2022-12-15T04:31:31.862Z,56.95
2022-12-15T04:34:21.924Z,54.60
2022-12-15T04:37:11.221Z,58.13
2022-12-15T04:40:00.727Z,60.38
2022-12-15T04:42:49.644Z,52.28
2022-12-15T04:45:40.099Z,52.70
2022-12-15T04:48:26.110Z,58.65
2022-12-15T04:51:11.811Z,52.85
2022-12-15T04:56:43.138Z,57.85
2022-12-15T04:59:28.363Z,58.13
2022-12-15T05:02:13.837Z,52.65
2022-12-15T05:04:59.458Z,54.20
2022-12-15T05:07:45.908Z,52.45
2022-12-15T05:10:32.100Z,53.25
2022-12-15T05:13:26.312Z,55.22
2022-12-15T05:16:12.183Z,59.55
2022-12-15T05:18:58.373Z,50.60
2022-12-15T05:21:44.114Z,50.08
2022-12-15T05:27:14.882Z,53.20
2022-12-15T05:30:00.194Z,57.40
2022-12-15T05:32:27.215Z,55.78
2022-12-15T05:34:54.215Z,52.28
2022-12-15T05:37:21.146Z,54.10
2022-12-15T05:39:48.281Z,55.67
2022-12-15T05:42:15.462Z,53.95
2022-12-15T05:44:43.251Z,50.70
2022-12-15T05:47:11.755Z,54.78
2022-12-15T05:49:38.681Z,50.45
2022-12-15T05:52:07.078Z,54.03
2022-12-15T05:54:34.046Z,53.38
2022-12-15T05:57:00.893Z,51.50
2022-12-15T05:59:27.911Z,49.25
2022-12-15T06:01:54.896Z,50.13
2022-12-15T06:04:22.001Z,53.40
2022-12-15T06:06:49.043Z,55.90
2022-12-15T06:09:15.979Z,55.95
2022-12-15T06:11:43.965Z,49.83
2022-12-15T06:14:10.881Z,48.53
2022-12-15T06:16:44.183Z,49.47
2022-12-15T06:19:17.849Z,52.00
2022-12-15T06:21:44.785Z,42.55
2022-12-15T06:24:11.768Z,53.65
2022-12-15T06:26:40.365Z,53.45
2022-12-15T06:29:11.291Z,59.65
2022-12-15T06:31:39.380Z,45.17
2022-12-15T06:34:12.771Z,51.97
2022-12-15T06:36:39.994Z,52.30
2022-12-15T06:39:12.962Z,45.13
2022-12-15T06:41:41.329Z,49.15
2022-12-15T06:44:12.937Z,43.70
2022-12-15T06:46:40.239Z,49.70
2022-12-15T06:49:09.191Z,50.05
2022-12-15T06:52:09.407Z,43.03
2022-12-15T06:54:36.387Z,53.17
2022-12-15T06:57:04.763Z,46.85
2022-12-15T06:59:34.611Z,48.15
2022-12-15T07:02:02.264Z,55.22
2022-12-15T07:04:32.464Z,52.88
2022-12-15T07:06:59.414Z,49.33
2022-12-15T07:09:27.844Z,44.05
2022-12-15T07:11:54.860Z,44.55
2022-12-15T07:14:23.072Z,46.58
2022-12-15T07:16:49.990Z,58.03
2022-12-15T07:19:16.872Z,49.30
2022-12-15T07:21:43.911Z,48.38
2022-12-15T07:24:14.204Z,53.03
2022-12-15T07:26:41.967Z,46.88
2022-12-15T07:29:10.251Z,53.20
2022-12-15T07:31:37.278Z,70.35
2022-12-15T07:34:04.209Z,50.05
2022-12-15T07:36:32.786Z,47.15
2022-12-15T07:39:02.609Z,47.63
2022-12-15T07:41:30.111Z,43.78
2022-12-15T07:43:58.454Z,47.92
2022-12-15T07:46:26.319Z,44.33
2022-12-15T07:48:53.491Z,39.63
2022-12-15T07:51:21.769Z,46.40
2022-12-15T07:53:51.775Z,49.78
2022-12-15T07:56:23.127Z,43.22
2022-12-15T07:58:51.687Z,45.40
2022-12-15T08:01:19.011Z,46.05
2022-12-15T08:03:46.569Z,44.53
2022-12-15T08:06:15.316Z,45.70
2022-12-15T08:08:50.407Z,49.03
2022-12-15T08:11:37.182Z,49.83
2022-12-15T08:14:11.961Z,50.45
2022-12-15T08:16:41.024Z,53.08
2022-12-15T08:19:20.965Z,51.83
2022-12-15T08:24:35.616Z,50.58
2022-12-15T08:27:02.602Z,56.63
2022-12-15T08:29:50.657Z,53.53
2022-12-15T08:32:24.587Z,58.72
2022-12-15T08:34:51.569Z,62.53
2022-12-15T08:37:18.517Z,51.47
2022-12-15T08:39:45.418Z,54.08
2022-12-15T08:42:12.334Z,48.30
2022-12-15T08:44:39.213Z,54.85
2022-12-15T08:47:07.649Z,57.78
2022-12-15T08:49:34.641Z,58.70
2022-12-15T08:52:01.532Z,58.13
2022-12-15T08:54:28.539Z,64.28
2022-12-15T08:56:55.434Z,56.75
2022-12-15T08:59:43.636Z,51.28
2022-12-15T09:02:18.333Z,54.30
2022-12-15T09:04:45.861Z,61.53
2022-12-15T09:07:13.573Z,55.40
2022-12-15T09:09:40.843Z,52.75
2022-12-15T09:12:11.837Z,56.63
2022-12-15T09:14:38.875Z,54.90
2022-12-15T09:17:05.889Z,57.00
2022-12-15T09:19:32.971Z,58.25
2022-12-15T09:22:01.502Z,52.85
2022-12-15T09:24:34.706Z,52.08
2022-12-15T09:27:03.352Z,51.97
2022-12-15T09:29:30.682Z,55.83
2022-12-15T09:31:57.601Z,57.75
2022-12-15T09:34:24.631Z,51.72
2022-12-15T09:36:51.708Z,50.83
2022-12-15T09:39:18.679Z,55.10
2022-12-15T09:42:00.167Z,47.83
2022-12-15T09:44:31.390Z,53.20
2022-12-15T09:47:31.522Z,52.17
2022-12-15T09:50:04.727Z,53.50
2022-12-15T09:52:46.401Z,52.33
2022-12-15T09:55:24.684Z,50.50
2022-12-15T09:58:09.107Z,52.17
2022-12-15T10:01:10.955Z,55.35
2022-12-15T10:04:41.323Z,52.72
2022-12-15T10:07:39.882Z,54.45
2022-12-15T10:10:25.701Z,52.92
2022-12-15T10:13:02.237Z,51.35
2022-12-15T10:15:44.568Z,50.50
2022-12-15T10:18:23.642Z,44.00
2022-12-15T10:20:55.051Z,47.70
2022-12-15T10:23:22.107Z,47.05
2022-12-15T10:25:59.279Z,49.55
2022-12-15T10:32:29.005Z,47.38
2022-12-15T10:35:21.136Z,45.17
2022-12-15T10:38:17.514Z,43.35
2022-12-15T10:40:55.548Z,43.40
2022-12-15T10:43:38.185Z,43.58
2022-12-15T10:46:15.888Z,41.05
2022-12-15T10:48:59.507Z,41.05
2022-12-15T10:51:39.496Z,38.40
2022-12-15T10:54:29.689Z,44.85
2022-12-15T10:57:30.254Z,45.13
2022-12-15T11:00:22.768Z,44.50
2022-12-15T11:02:50.726Z,41.83
2022-12-15T11:05:18.800Z,45.72
2022-12-15T11:07:59.277Z,42.08
2022-12-15T11:10:58.748Z,41.47
2022-12-15T11:13:34.815Z,45.30
2022-12-15T11:16:17.486Z,41.70
2022-12-15T11:18:50.523Z,47.45
2022-12-15T11:21:21.599Z,44.20
2022-12-15T11:24:25.932Z,43.53
2022-12-15T11:27:06.262Z,45.35
2022-12-15T11:29:57.402Z,38.47
2022-12-15T11:32:33.792Z,41.78
2022-12-15T11:35:01.240Z,44.38
2022-12-15T11:38:01.566Z,42.55
2022-12-15T11:40:34.505Z,37.58
2022-12-15T11:43:27.222Z,41.88
2022-12-15T11:46:30.039Z,45.33
2022-12-15T11:49:42.832Z,40.53
2022-12-15T11:52:50.426Z,47.63
2022-12-15T11:55:33.215Z,48.42
2022-12-15T11:58:48.855Z,47.22
2022-12-15T12:01:25.860Z,39.13
2022-12-15T12:04:18.214Z,46.72
2022-12-15T12:07:19.031Z,41.72
2022-12-15T12:10:36.973Z,42.10
2022-12-15T12:13:34.084Z,37.67
2022-12-15T12:16:45.731Z,40.15
2022-12-15T12:19:32.383Z,39.25
2022-12-15T12:22:11.856Z,40.17
2022-12-15T12:25:12.156Z,36.83
2022-12-15T12:28:26.987Z,36.78
2022-12-15T12:30:59.696Z,36.30
2022-12-15T12:33:55.606Z,37.65
2022-12-15T12:36:22.667Z,33.08
2022-12-15T12:38:59.608Z,34.90
2022-12-15T12:42:04.709Z,35.25
2022-12-15T12:44:38.397Z,35.63
2022-12-15T12:47:25.736Z,31.60
2022-12-15T12:50:03.856Z,29.65
2022-12-15T12:52:36.294Z,28.40
2022-12-15T12:55:43.330Z,31.67
2022-12-15T12:58:39.240Z,32.22
2022-12-15T13:04:47.220Z,38.85
2022-12-15T13:07:36.596Z,33.80
2022-12-15T13:10:09.371Z,35.40
2022-12-15T13:12:58.705Z,37.30
2022-12-15T13:16:16.947Z,36.40
2022-12-15T13:19:14.162Z,35.33
2022-12-15T13:21:44.449Z,36.47
2022-12-15T13:24:46.164Z,39.72
2022-12-15T13:27:18.510Z,40.85
2022-12-15T13:30:21.060Z,39.88
2022-12-15T13:32:54.897Z,39.17
2022-12-15T13:35:31.260Z,33.78
2022-12-15T13:38:07.393Z,47.80
2022-12-15T13:40:37.933Z,46.05
2022-12-15T13:43:04.788Z,40.03
2022-12-15T13:45:39.374Z,43.35
2022-12-15T13:48:33.929Z,39.35
2022-12-15T13:51:33.627Z,36.25
2022-12-15T13:54:21.659Z,43.75
2022-12-15T13:57:14.753Z,41.60
2022-12-15T13:59:52.707Z,48.65
2022-12-15T14:02:31.477Z,38.28
2022-12-15T14:05:26.066Z,43.97
2022-12-15T14:07:54.928Z,44.13
2022-12-15T14:10:27.100Z,39.08
2022-12-15T14:12:58.034Z,44.42
2022-12-15T14:15:33.196Z,48.00
2022-12-15T14:18:02.573Z,48.53
2022-12-15T14:20:39.826Z,49.97
2022-12-15T14:23:38.429Z,48.95
2022-12-15T14:26:41.986Z,48.10
2022-12-15T14:29:44.912Z,48.53
2022-12-15T14:32:12.113Z,41.72
2022-12-15T14:34:50.679Z,45.42
2022-12-15T14:37:29.351Z,51.40
2022-12-15T14:39:57.623Z,44.88
2022-12-15T14:42:28.996Z,52.10
2022-12-15T14:44:58.492Z,48.38
2022-12-15T14:47:35.127Z,52.35
2022-12-15T14:50:09.806Z,46.47
2022-12-15T14:52:44.926Z,61.92
2022-12-15T14:55:40.256Z,49.60
2022-12-15T14:58:40.725Z,50.65
2022-12-15T15:01:50.703Z,53.45
2022-12-15T15:03:11.154Z,51.00
2022-12-15T15:04:35.434Z,53.83
2022-12-15T15:07:15.734Z,49.42
2022-12-15T15:09:45.959Z,44.42
2022-12-15T15:12:20.784Z,47.72
2022-12-15T15:15:04.259Z,46.42
2022-12-15T15:17:48.666Z,45.00
2022-12-15T15:20:23.009Z,43.92
2022-12-15T15:23:18.110Z,57.40
2022-12-15T15:26:04.152Z,49.72
2022-12-15T15:28:46.461Z,42.67
2022-12-15T15:31:40.912Z,45.88
2022-12-15T15:34:09.289Z,47.10
2022-12-15T15:39:32.795Z,45.50
2022-12-15T15:42:10.560Z,46.13
2022-12-15T15:44:37.486Z,44.47
2022-12-15T15:47:14.758Z,48.95
2022-12-15T15:49:42.084Z,45.50
2022-12-15T15:52:13.309Z,49.10
2022-12-15T15:54:40.412Z,42.08
2022-12-15T15:57:16.878Z,50.20
2022-12-15T15:59:45.258Z,44.67
2022-12-15T16:02:14.821Z,47.70
2022-12-15T16:04:43.657Z,53.45
2022-12-15T16:07:29.022Z,45.00
2022-12-15T16:09:57.106Z,46.13
2022-12-15T16:12:40.640Z,49.20
2022-12-15T16:15:26.135Z,51.10
2022-12-15T16:17:54.579Z,54.83
2022-12-15T16:20:26.008Z,47.60
2022-12-15T16:23:11.890Z,53.25
2022-12-15T16:25:50.328Z,52.33
2022-12-15T16:28:22.210Z,51.80
2022-12-15T16:30:50.596Z,50.88
2022-12-15T16:33:18.261Z,54.67
2022-12-15T16:35:48.754Z,48.92
2022-12-15T16:38:28.971Z,52.63
2022-12-15T16:40:58.666Z,48.80
2022-12-15T16:43:32.922Z,47.17
2022-12-15T16:46:03.794Z,49.17
2022-12-15T16:48:31.246Z,52.25
2022-12-15T16:50:59.157Z,46.88
2022-12-15T16:53:33.278Z,50.45
2022-12-15T16:56:05.104Z,50.58
2022-12-15T16:58:35.197Z,47.03
2022-12-15T17:01:03.880Z,43.55
2022-12-15T17:03:31.095Z,45.53
2022-12-15T17:06:03.962Z,48.58
2022-12-15T17:08:42.662Z,42.72
2022-12-15T17:11:18.425Z,52.92
2022-12-15T17:13:51.108Z,52.08
2022-12-15T17:16:20.555Z,46.40
2022-12-15T17:18:48.168Z,44.10
2022-12-15T17:21:47.881Z,52.15
2022-12-15T17:24:20.028Z,47.00
2022-12-15T17:26:47.698Z,48.92
2022-12-15T17:29:21.437Z,49.30
2022-12-15T17:31:49.012Z,60.17
2022-12-15T17:34:30.078Z,53.95
2022-12-15T17:37:03.330Z,53.40
2022-12-15T17:39:31.085Z,58.50
2022-12-15T17:42:00.425Z,63.42
2022-12-15T17:45:34.173Z,60.67
2022-12-15T17:48:04.261Z,59.03
2022-12-15T17:50:34.849Z,64.15
2022-12-15T17:53:05.370Z,71.65
2022-12-15T17:55:35.633Z,57.70
2022-12-15T17:58:15.321Z,63.50
2022-12-15T18:00:48.929Z,70.70
2022-12-15T18:03:16.723Z,53.30
2022-12-15T18:05:47.212Z,59.45
2022-12-15T18:08:25.677Z,63.63
2022-12-15T18:10:56.557Z,62.08
2022-12-15T18:13:35.601Z,58.40
2022-12-15T18:16:02.909Z,59.20
2022-12-15T18:18:30.230Z,60.13
2022-12-15T18:21:12.564Z,59.40
2022-12-15T18:23:40.208Z,62.42
2022-12-15T18:26:12.143Z,55.90
2022-12-15T18:28:39.106Z,59.28
2022-12-15T18:31:33.703Z,56.28
2022-12-15T18:34:04.813Z,58.05
2022-12-15T18:36:32.212Z,65.30
2022-12-15T18:38:59.140Z,60.28
2022-12-15T18:41:26.135Z,60.10
2022-12-15T18:43:56.259Z,47.28
2022-12-15T18:46:23.235Z,54.78
2022-12-15T18:48:50.435Z,59.70
2022-12-15T18:51:21.747Z,59.38
2022-12-15T18:53:49.316Z,59.20
2022-12-15T18:56:21.441Z,58.47
2022-12-15T18:58:48.427Z,63.50
2022-12-15T19:01:16.210Z,61.20
2022-12-15T19:03:43.367Z,65.47
2022-12-15T19:06:34.771Z,53.72
2022-12-15T19:09:33.715Z,63.65
2022-12-15T19:12:30.112Z,63.92
2022-12-15T19:14:57.304Z,58.20
2022-12-15T19:17:43.335Z,64.63
2022-12-15T19:20:38.618Z,67.68
2022-12-15T19:23:07.206Z,62.60
2022-12-15T19:25:35.556Z,61.58
2022-12-15T19:28:02.639Z,63.13
2022-12-15T19:30:38.535Z,60.63
2022-12-15T19:33:10.524Z,64.40
2022-12-15T19:35:40.629Z,68.50
2022-12-15T19:38:12.751Z,61.95
2022-12-15T19:40:41.150Z,59.58
2022-12-15T19:43:15.630Z,66.28
2022-12-15T19:45:43.206Z,59.63
2022-12-15T19:48:12.601Z,58.17
2022-12-15T19:50:42.174Z,56.20
2022-12-15T19:53:24.015Z,63.70
2022-12-15T19:55:55.230Z,58.13
2022-12-15T19:58:31.691Z,66.72
2022-12-15T20:01:06.734Z,71.20
2022-12-15T20:03:35.208Z,59.85
2022-12-15T20:06:06.726Z,64.43
2022-12-15T20:08:38.235Z,61.17
2022-12-15T20:11:09.375Z,58.65
2022-12-15T20:13:36.751Z,60.38
2022-12-15T20:16:07.159Z,51.95
2022-12-15T20:18:34.858Z,59.03
2022-12-15T20:21:02.719Z,59.15
2022-12-15T20:23:31.820Z,59.85
2022-12-15T20:25:59.341Z,61.53
2022-12-15T20:28:29.888Z,60.38
2022-12-15T20:31:01.202Z,65.80
2022-12-15T20:33:28.755Z,56.42
2022-12-15T20:35:56.268Z,64.75
2022-12-15T20:38:34.422Z,74.00
2022-12-15T20:41:03.859Z,64.82
2022-12-15T20:43:33.868Z,63.72
2022-12-15T20:46:12.631Z,70.40
2022-12-15T20:48:40.391Z,69.32
2022-12-15T20:51:11.471Z,62.60
2022-12-15T20:53:40.484Z,66.38
2022-12-15T20:56:08.182Z,70.05
2022-12-15T20:58:40.841Z,66.68
2022-12-15T21:01:23.440Z,73.63
2022-12-15T21:03:54.748Z,75.78
2022-12-15T21:06:23.263Z,68.50
2022-12-15T21:09:22.762Z,60.88
2022-12-15T21:11:51.877Z,67.75
2022-12-15T21:14:22.770Z,66.88
2022-12-15T21:16:52.392Z,64.47
2022-12-15T21:19:22.410Z,59.72
2022-12-15T21:21:55.275Z,63.33
2022-12-15T21:24:28.956Z,59.47
2022-12-15T21:26:56.374Z,62.55
2022-12-15T21:29:27.614Z,62.92
2022-12-15T21:31:54.728Z,57.08
2022-12-15T21:34:22.638Z,61.78
2022-12-15T21:36:55.110Z,58.30
2022-12-15T21:39:36.337Z,64.75
2022-12-15T21:42:12.618Z,58.70
2022-12-15T21:44:43.069Z,59.42
2022-12-15T21:47:51.974Z,60.63
2022-12-15T21:50:23.181Z,60.60
2022-12-15T21:52:50.666Z,64.47
2022-12-15T21:55:25.781Z,66.43
2022-12-15T21:57:54.567Z,64.13
2022-12-15T22:00:25.029Z,64.20
2022-12-15T22:02:53.631Z,75.00
2022-12-15T22:05:30.476Z,77.07
2022-12-15T22:08:17.933Z,71.95
2022-12-15T22:10:52.168Z,66.35
2022-12-15T22:13:25.190Z,66.03
2022-12-15T22:15:54.982Z,59.85
2022-12-15T22:18:24.997Z,51.55
2022-12-15T22:20:55.545Z,54.92
2022-12-15T22:23:25.004Z,54.53
2022-12-15T22:25:55.975Z,50.83
2022-12-15T22:28:28.558Z,58.53
2022-12-15T22:30:59.514Z,53.63
2022-12-15T22:33:28.548Z,62.15
2022-12-15T22:35:56.455Z,67.18
2022-12-15T22:38:24.731Z,58.92
2022-12-15T22:40:58.797Z,65.63
2022-12-15T22:43:43.471Z,65.50
2022-12-15T22:46:15.023Z,71.60
2022-12-15T22:48:45.565Z,72.28
2022-12-15T22:51:18.772Z,64.68
2022-12-15T22:53:48.176Z,66.38
2022-12-15T22:56:33.288Z,61.97
2022-12-15T22:59:10.283Z,77.10
2022-12-15T23:01:37.416Z,68.50
2022-12-15T23:04:05.739Z,56.30
2022-12-15T23:06:35.583Z,59.67
2022-12-15T23:09:02.578Z,53.83
2022-12-15T23:11:38.284Z,52.67
2022-12-15T23:14:19.186Z,60.95
2022-12-15T23:16:46.733Z,64.82
2022-12-15T23:19:23.686Z,67.75
2022-12-15T23:21:51.996Z,65.55
2022-12-15T23:24:20.950Z,66.03
2022-12-15T23:26:47.876Z,64.90
2022-12-15T23:29:14.972Z,62.60
2022-12-15T23:31:42.007Z,60.45
2022-12-15T23:34:10.941Z,71.72
2022-12-15T23:36:37.812Z,68.55
2022-12-15T23:39:04.702Z,70.60
2022-12-15T23:41:31.604Z,65.85
2022-12-15T23:43:58.537Z,63.75
2022-12-15T23:46:25.515Z,67.55
2022-12-15T23:48:52.647Z,62.67
2022-12-15T23:51:22.005Z,68.45
2022-12-15T23:53:48.999Z,70.32
2022-12-15T23:56:22.856Z,65.13
2022-12-15T23:58:58.108Z,60.15
